CST,Max TemperatureF,Mean TemperatureF,Min TemperatureF,Max Dew PointF,MeanDew PointF,Min DewpointF,Max Humidity, Mean Humidity, Min Humidity, Max Sea Level PressureIn, Mean Sea Level PressureIn, Min Sea Level PressureIn, Max VisibilityMiles, Mean VisibilityMiles, Min VisibilityMiles, Max Wind SpeedMPH, Mean Wind SpeedMPH, Max Gust SpeedMPH,PrecipitationIn, CloudCover, Events, WindDirDegrees
2012-11-1,46,35,24,37,27,21,87,69,45,30.07,30.02,29.95,10,10,10,17,12,24,0.00,3,,347
2012-11-2,35,29,23,28,25,21,93,80,70,30.15,30.11,30.07,10,10,10,10,6,,0.00,3,,66
2012-11-3,37,34,30,34,30,27,100,85,75,30.21,30.18,30.15,10,10,7,7,2,,0.00,8,Snow,102
2012-11-4,37,35,33,34,31,28,87,81,75,30.20,30.17,30.13,10,10,7,10,6,,0.00,7,,75
2012-11-5,35,34,32,36,34,32,100,96,87,30.17,30.08,29.85,10,4,0,16,8,21,0.04,7,Fog-Rain-Snow,105
2012-11-6,41,37,33,37,35,34,100,90,81,30.00,29.85,29.75,10,8,2,26,15,33,0.10,7,Rain,289
2012-11-7,46,39,32,37,34,30,100,84,62,30.10,30.03,29.94,10,9,0,20,7,25,0.00,3,Fog,210
2012-11-8,51,42,33,37,34,30,93,79,54,30.04,29.94,29.85,10,10,7,20,13,28,0.00,1,,62
2012-11-9,44,40,37,37,36,34,93,86,76,30.05,29.98,29.86,10,10,10,25,15,31,0.00,6,,58
2012-11-10,48,42,35,48,42,36,100,97,87,29.87,29.59,29.44,10,2,0,23,17,32,0.43,8,Fog-Rain-Thunderstorm,90
2012-11-11,33,25,17,34,19,10,100,85,73,29.88,29.77,29.54,10,10,4,24,18,31,0.00,8,Snow,270
2012-11-12,21,18,12,18,14,10,100,85,73,30.24,30.04,29.86,10,8,1,22,15,30,0.00,6,Snow,270
2012-11-13,41,26,12,30,22,10,93,80,56,30.26,30.23,30.20,10,10,10,12,6,,0.00,3,,177
2012-11-14,48,37,26,34,29,25,100,80,53,30.22,30.16,30.09,10,10,10,9,5,,0.00,1,,188
2012-11-15,41,32,23,32,24,16,93,71,44,30.47,30.28,30.07,10,10,10,17,7,25,0.00,1,,304
2012-11-16,41,29,17,28,17,12,93,64,36,30.48,30.35,30.19,10,10,10,17,7,21,0.00,0,,133
2012-11-17,53,44,35,37,34,28,81,68,54,30.18,30.12,30.08,10,10,10,23,16,29,0.00,0,,161
2012-11-18,55,46,37,37,35,30,81,64,47,30.07,30.02,29.99,10,10,10,20,14,28,0.00,0,,156
2012-11-19,53,42,30,39,36,30,100,75,54,30.11,30.02,29.96,10,9,4,15,10,18,0.00,1,,236
2012-11-20,50,36,21,39,30,21,100,81,43,30.18,30.09,29.95,10,6,0,13,6,16,0.00,1,Fog,141
2012-11-21,59,46,33,41,35,30,93,69,42,29.94,29.80,29.58,10,10,10,21,8,26,0.00,0,,169
2012-11-22,50,34,17,41,29,16,100,85,71,30.07,29.78,29.56,10,7,0,37,16,46,0.00,5,Snow,280
2012-11-23,21,16,10,14,11,7,92,82,73,30.39,30.31,30.09,10,8,2,37,24,47,0.00,7,Snow,305
2012-11-24,28,18,8,21,14,5,93,84,74,30.33,30.02,29.77,10,10,7,16,5,,0.00,6,Snow,152
2012-11-25,30,22,12,25,19,7,93,80,63,30.21,29.98,29.81,10,10,10,22,13,29,0.00,8,,308
2012-11-26,17,10,3,30,6,1,92,79,63,30.41,30.32,30.22,10,10,5,16,9,21,0.00,0,Snow,278
2012-11-27,33,22,12,25,18,9,93,80,65,30.25,30.15,30.06,10,10,10,17,9,22,0.00,3,,256
2012-11-28,35,30,24,27,23,19,93,80,65,30.28,30.17,30.02,10,10,10,16,9,18,0.00,4,,204
2012-11-29,32,26,21,27,24,19,100,90,80,30.11,30.06,30.02,10,7,3,21,9,25,0.00,1,,54
2012-11-30,32,28,24,30,27,23,100,93,86,30.15,30.07,29.95,10,5,2,20,13,23,0.00,8,,104